Terminal Aerodrome Forecast
Issued by NWS

Home | Current Version | Previous Version | Text Only | Print | Product List | Glossary On
Versions: 1 2 3 4 5 6 7 8 9 10 11 12 13 14 15 16 17 18 19 20 21 22 23 24
000
FTUS43 KMQT 220500
TAFSAW
TAF
KSAW 220523Z 2206/2306 14003KT P6SM SKC
     FM220900 18003KT 3SM BR SKC
     FM221300 18009KT P6SM SCT250
      AMD LTD TO CLD VIS AND WIND TIL 221000=

USA.gov is the U.S. government's official web portal to all federal, state and local government web resources and services.